Decoded Metar for OMAD (ABU DHABI in UNITED ARAB EMIRATES) (IATA:AZI) | Meteo·Mobile Aviation Weather
aviador You're here:

OMAD Decoded Metar

ABU DHABI in UNITED ARAB EMIRATES
Report Time2019-01-19 16:00:00
UTC Time2019-01-19 16:40:52
Flight Rules vfr VFR
Wind300° at 13 kt
W.Decomp.*RWY 31: 12.7 kt HW 2.7 kt LCW
W.Rank300° ranks 7
Current wind is above 300° avg. (9.5)
Visibility9999 m
Phenomena:N/A
Clouds:Scattered 035 Hf
Expected CloudBase > 3,600 ft AGL from Temp-Dew spread
CeilingNone
Temp19°C (ISA +4)
Dew Point10°C (56% RH)
AAT14.4°C
QNH1018 hPa
Density Alt479 ft
Elevation10 ft
Report Wrong Elevation
Raw Report
METAR OMAD 191600Z 30013KT 9999 SCT035 19/10 Q1018 NOSIG=

Extra information for OMAD:More info

Metar Taf Metar & Taf Last 4 Metars F.Rules Stats Wind Profile Meteogram Temp Stats Airport Information Weather charts Add Link Nearby VenuesMetar ALERT Operation Metar Decoded Social comments